Time;durP1;ratioP1;P1;durP2;ratioP2;P2;SDS_P1;SDS_P2;PMS_P1;PMS_P2;Temp;Humidity;BMP_temperature;BMP_pressure;BME280_temperature;BME280_humidity;BME280_pressure;Samples;Min_cycle;Max_cycle;Signal;HPM_P1;HPM_P2
2023/08/30 00:00:58;;;;;;;4.65;2.35;;;;;;;;;;6188174;23;20076;-66
2023/08/30 00:03:24;;;;;;;6.22;2.42;;;;;;;;;;6214816;23;20075;-66
2023/08/30 00:05:51;;;;;;;4.70;2.70;;;;;;;;;;6214507;23;20084;-66
2023/08/30 00:08:19;;;;;;;3.90;2.55;;;;;;;;;;6214766;23;20067;-66
2023/08/30 00:10:46;;;;;;;4.85;2.28;;;;;;;;;;6214691;23;20088;-66
2023/08/30 00:13:12;;;;;;;5.85;2.17;;;;;;;;;;6214215;23;20068;-66
2023/08/30 00:15:39;;;;;;;7.50;2.53;;;;;;;;;;6214643;23;20368;-66
2023/08/30 00:18:05;;;;;;;5.57;2.17;;;;;;;;;;6214780;23;20076;-66
2023/08/30 00:20:32;;;;;;;4.70;2.40;;;;;;;;;;6214563;23;20084;-66
2023/08/30 00:22:58;;;;;;;5.95;2.72;;;;;;;;;;6214593;23;20063;-66
2023/08/30 00:25:24;;;;;;;5.47;2.60;;;;;;;;;;6187535;23;20088;-66
2023/08/30 00:27:51;;;;;;;8.45;2.60;;;;;;;;;;6214566;23;20084;-66
2023/08/30 00:30:17;;;;;;;3.45;2.05;;;;;;;;;;6214619;23;20430;-66
2023/08/30 00:32:44;;;;;;;5.05;2.40;;;;;;;;;;6214599;23;20075;-66
2023/08/30 00:35:11;;;;;;;5.90;2.50;;;;;;;;;;6214521;23;20087;-66
2023/08/30 00:37:37;;;;;;;4.00;2.50;;;;;;;;;;6214587;23;20084;-66
2023/08/30 00:40:03;;;;;;;6.40;2.72;;;;;;;;;;6214924;23;20479;-66
2023/08/30 00:42:30;;;;;;;4.95;2.40;;;;;;;;;;6216582;23;20134;-66
2023/08/30 00:44:56;;;;;;;6.10;2.65;;;;;;;;;;6216534;23;20095;-66
2023/08/30 00:47:22;;;;;;;5.60;3.25;;;;;;;;;;6216683;23;20075;-66
2023/08/30 00:49:49;;;;;;;8.45;2.92;;;;;;;;;;6216617;23;20537;-66
2023/08/30 00:52:15;;;;;;;6.13;3.25;;;;;;;;;;6216532;23;20075;-66
2023/08/30 00:54:42;;;;;;;5.53;2.35;;;;;;;;;;6216188;23;20080;-66
2023/08/30 00:57:09;;;;;;;6.35;2.88;;;;;;;;;;6216614;23;20095;-66
2023/08/30 00:59:36;;;;;;;5.90;2.95;;;;;;;;;;6217300;23;20075;-66
2023/08/30 01:02:02;;;;;;;3.75;2.38;;;;;;;;;;6217259;23;20075;-66
2023/08/30 01:04:29;;;;;;;5.68;3.00;;;;;;;;;;6216382;23;20075;-66
2023/08/30 01:06:55;;;;;;;5.93;2.90;;;;;;;;;;6216436;23;20076;-66
2023/08/30 01:09:21;;;;;;;4.78;2.70;;;;;;;;;;6216071;23;20088;-66
2023/08/30 01:11:54;;;;;;;5.15;2.47;;;;;;;;;;6216228;23;20388;-66
2023/08/30 01:14:22;;;;;;;5.72;2.55;;;;;;;;;;6216316;23;20072;-66
2023/08/30 01:16:49;;;;;;;4.72;2.42;;;;;;;;;;6216355;23;20475;-66
2023/08/30 01:19:15;;;;;;;4.70;2.80;;;;;;;;;;6216365;23;20071;-66
2023/08/30 01:21:57;;;;;;;6.55;2.70;;;;;;;;;;6216266;23;20491;-66
2023/08/30 01:24:45;;;;;;;7.05;3.08;;;;;;;;;;6215770;23;20068;-66
2023/08/30 01:27:12;;;;;;;7.95;3.20;;;;;;;;;;6216182;23;20509;-66
2023/08/30 01:29:41;;;;;;;5.70;2.70;;;;;;;;;;6216288;23;20063;-66
2023/08/30 01:32:09;;;;;;;5.82;2.70;;;;;;;;;;6216157;23;20557;-66
2023/08/30 01:34:37;;;;;;;4.97;2.38;;;;;;;;;;6216234;23;20075;-66
2023/08/30 01:37:05;;;;;;;5.43;2.42;;;;;;;;;;6215928;23;20151;-66
2023/08/30 01:39:32;;;;;;;6.03;2.60;;;;;;;;;;6215608;23;20075;-66
2023/08/30 01:42:00;;;;;;;5.35;3.00;;;;;;;;;;6216056;23;20402;-66
2023/08/30 01:44:30;;;;;;;4.15;2.25;;;;;;;;;;6189351;23;20079;-66
2023/08/30 01:46:57;;;;;;;6.22;2.50;;;;;;;;;;6216084;23;20076;-66
2023/08/30 01:49:24;;;;;;;6.03;2.85;;;;;;;;;;6216106;23;20394;-66
2023/08/30 01:51:51;;;;;;;5.85;2.97;;;;;;;;;;6215827;23;20079;-66
2023/08/30 01:54:19;;;;;;;5.78;2.75;;;;;;;;;;6215559;23;20075;-66
2023/08/30 01:56:47;;;;;;;4.30;2.92;;;;;;;;;;6215918;23;20081;-66
2023/08/30 01:59:14;;;;;;;8.32;2.90;;;;;;;;;;6215925;23;20072;-66
2023/08/30 02:01:40;;;;;;;6.45;2.70;;;;;;;;;;6215872;23;20072;-66
2023/08/30 02:04:06;;;;;;;6.63;2.83;;;;;;;;;;6189391;23;20072;-66
2023/08/30 02:07:08;;;;;;;5.18;2.65;;;;;;;;;;6215714;23;20095;-66
2023/08/30 02:09:39;;;;;;;5.80;3.00;;;;;;;;;;6065684;23;20090;-66
2023/08/30 02:12:07;;;;;;;8.32;3.17;;;;;;;;;;6065848;23;20082;-66
2023/08/30 02:14:33;;;;;;;7.38;2.65;;;;;;;;;;6065667;23;20091;-66
2023/08/30 02:17:00;;;;;;;11.27;3.15;;;;;;;;;;6065913;23;20105;-66
2023/08/30 02:19:26;;;;;;;5.68;3.00;;;;;;;;;;6065776;23;20090;-66
2023/08/30 02:21:53;;;;;;;4.88;2.53;;;;;;;;;;6065346;23;20077;-66
2023/08/30 02:24:19;;;;;;;6.10;3.40;;;;;;;;;;6065709;23;20085;-66
2023/08/30 02:26:45;;;;;;;5.25;2.83;;;;;;;;;;6065649;23;20089;-66
2023/08/30 02:29:13;;;;;;;8.02;3.00;;;;;;;;;;6065832;23;20533;-66
2023/08/30 02:31:39;;;;;;;6.60;2.75;;;;;;;;;;6065579;23;20084;-66
2023/08/30 02:34:05;;;;;;;10.95;3.63;;;;;;;;;;6065832;23;20078;-66
2023/08/30 02:36:32;;;;;;;5.53;3.13;;;;;;;;;;6065071;23;20090;-66
2023/08/30 02:38:58;;;;;;;5.40;3.05;;;;;;;;;;6065578;23;20082;-66
2023/08/30 02:41:24;;;;;;;4.88;2.72;;;;;;;;;;6065594;23;20078;-66
2023/08/30 02:43:51;;;;;;;3.85;2.80;;;;;;;;;;6160655;23;20135;-66
2023/08/30 02:46:17;;;;;;;6.70;3.17;;;;;;;;;;6215367;23;20096;-66
2023/08/30 02:48:43;;;;;;;3.83;2.63;;;;;;;;;;6215458;23;20071;-66
2023/08/30 02:51:10;;;;;;;4.47;2.70;;;;;;;;;;6214892;23;20095;-66
2023/08/30 02:53:36;;;;;;;7.85;3.22;;;;;;;;;;6215421;23;20072;-66
2023/08/30 02:56:02;;;;;;;7.00;3.38;;;;;;;;;;6215386;23;20372;-66
2023/08/30 02:58:28;;;;;;;5.93;3.25;;;;;;;;;;6215914;23;20133;-66
2023/08/30 03:00:55;;;;;;;6.75;2.95;;;;;;;;;;6215199;23;20083;-66
2023/08/30 03:03:21;;;;;;;8.10;3.35;;;;;;;;;;6188397;23;20388;-66
2023/08/30 03:05:48;;;;;;;7.03;2.90;;;;;;;;;;6214807;23;20026;-66
2023/08/30 03:08:14;;;;;;;5.25;2.83;;;;;;;;;;6215227;23;20080;-66
2023/08/30 03:10:41;;;;;;;5.68;2.95;;;;;;;;;;6215284;23;20491;-65
2023/08/30 03:13:07;;;;;;;8.10;2.95;;;;;;;;;;6215196;23;20375;-66
2023/08/30 03:15:33;;;;;;;7.20;3.15;;;;;;;;;;6215207;23;20106;-66
2023/08/30 03:18:00;;;;;;;8.10;3.00;;;;;;;;;;6215566;23;20072;-66
2023/08/30 03:20:28;;;;;;;6.68;2.85;;;;;;;;;;6214633;23;20083;-66
2023/08/30 03:22:57;;;;;;;8.90;3.10;;;;;;;;;;6215244;23;20075;-66
2023/08/30 03:25:24;;;;;;;6.45;2.95;;;;;;;;;;6215044;23;20135;-66
2023/08/30 03:27:50;;;;;;;5.97;3.35;;;;;;;;;;6215116;23;20076;-66
2023/08/30 03:30:16;;;;;;;6.60;3.20;;;;;;;;;;6215044;23;20510;-67
2023/08/30 03:32:43;;;;;;;7.05;2.78;;;;;;;;;;6215077;23;20072;-66
2023/08/30 03:35:09;;;;;;;5.95;3.38;;;;;;;;;;6214420;23;20091;-66
2023/08/30 03:37:36;;;;;;;7.38;2.90;;;;;;;;;;6215053;23;20085;-66
2023/08/30 03:40:02;;;;;;;4.70;2.75;;;;;;;;;;6214953;23;20283;-66
2023/08/30 03:42:28;;;;;;;9.70;2.83;;;;;;;;;;6214878;23;20055;-66
2023/08/30 03:44:55;;;;;;;6.93;2.75;;;;;;;;;;6214906;23;20075;-66
2023/08/30 03:47:21;;;;;;;4.38;2.95;;;;;;;;;;6214997;23;20071;-66
2023/08/30 03:49:47;;;;;;;4.93;3.03;;;;;;;;;;6214482;23;20075;-66
2023/08/30 03:52:14;;;;;;;6.13;2.72;;;;;;;;;;6214786;23;20534;-66
2023/08/30 03:54:40;;;;;;;7.15;2.85;;;;;;;;;;6214894;23;20487;-66
2023/08/30 03:57:06;;;;;;;6.20;2.58;;;;;;;;;;6214790;23;20087;-66
2023/08/30 03:59:33;;;;;;;8.20;3.03;;;;;;;;;;6214917;23;20107;-66
2023/08/30 04:02:00;;;;;;;4.65;3.08;;;;;;;;;;6214778;23;20506;-66
2023/08/30 04:04:26;;;;;;;8.70;3.75;;;;;;;;;;6214216;23;20075;-66
2023/08/30 04:06:52;;;;;;;6.93;3.08;;;;;;;;;;6214799;23;20087;-66
2023/08/30 04:09:19;;;;;;;4.43;3.00;;;;;;;;;;6214721;23;20527;-66
2023/08/30 04:11:45;;;;;;;4.28;3.00;;;;;;;;;;6214560;23;20080;-66
2023/08/30 04:14:12;;;;;;;4.38;3.10;;;;;;;;;;6214351;23;20483;-66
2023/08/30 04:16:38;;;;;;;6.25;3.05;;;;;;;;;;6214692;23;20503;-66
2023/08/30 04:19:04;;;;;;;5.07;3.03;;;;;;;;;;6214334;23;20075;-66
2023/08/30 04:21:30;;;;;;;5.25;2.85;;;;;;;;;;6214650;23;20060;-66
2023/08/30 04:23:57;;;;;;;7.28;3.17;;;;;;;;;;6214595;23;20083;-66
2023/08/30 04:26:23;;;;;;;6.85;3.35;;;;;;;;;;6214586;23;20091;-66
2023/08/30 04:28:49;;;;;;;8.85;3.17;;;;;;;;;;6214563;23;20064;-66
2023/08/30 04:31:16;;;;;;;7.07;2.92;;;;;;;;;;6214606;23;20099;-66
2023/08/30 04:33:42;;;;;;;6.47;3.05;;;;;;;;;;6214222;23;20068;-66
2023/08/30 04:36:08;;;;;;;5.55;2.67;;;;;;;;;;6214434;23;20091;-66
2023/08/30 04:38:34;;;;;;;10.90;3.28;;;;;;;;;;6214547;23;20084;-66
2023/08/30 04:41:01;;;;;;;5.63;3.17;;;;;;;;;;6214369;23;20071;-66
2023/08/30 04:43:27;;;;;;;8.27;3.13;;;;;;;;;;6214642;23;20079;-66
2023/08/30 04:45:54;;;;;;;7.88;3.28;;;;;;;;;;6214411;23;20076;-66
2023/08/30 04:48:20;;;;;;;5.25;3.20;;;;;;;;;;6214247;23;20084;-65
2023/08/30 04:50:46;;;;;;;6.90;3.28;;;;;;;;;;6214342;23;20068;-66
2023/08/30 04:53:13;;;;;;;6.20;3.15;;;;;;;;;;6214473;23;20072;-66
2023/08/30 04:55:39;;;;;;;7.05;4.00;;;;;;;;;;6214549;23;20075;-66
2023/08/30 04:58:08;;;;;;;5.97;3.17;;;;;;;;;;6187992;23;20087;-66
2023/08/30 05:00:36;;;;;;;12.07;3.80;;;;;;;;;;6214414;23;20084;-66
2023/08/30 05:03:02;;;;;;;6.68;3.17;;;;;;;;;;6214005;23;20067;-66
2023/08/30 05:05:29;;;;;;;8.45;2.92;;;;;;;;;;6214378;23;20083;-66
2023/08/30 05:07:55;;;;;;;5.53;3.00;;;;;;;;;;6214537;23;20075;-66
2023/08/30 05:10:21;;;;;;;10.60;3.53;;;;;;;;;;6214367;23;20071;-66
2023/08/30 05:12:51;;;;;;;11.02;3.28;;;;;;;;;;6214454;23;20087;-66
2023/08/30 05:15:18;;;;;;;7.95;3.67;;;;;;;;;;6214441;23;20390;-66
2023/08/30 05:17:44;;;;;;;6.00;2.83;;;;;;;;;;6214146;23;20083;-66
2023/08/30 05:20:11;;;;;;;9.65;3.30;;;;;;;;;;6214257;23;20079;-66
2023/08/30 05:22:37;;;;;;;5.78;3.05;;;;;;;;;;6214511;23;20120;-66
2023/08/30 05:25:04;;;;;;;7.97;3.45;;;;;;;;;;6214215;23;20075;-66
2023/08/30 05:27:30;;;;;;;6.45;3.47;;;;;;;;;;6216252;23;20088;-66
2023/08/30 05:29:57;;;;;;;6.13;3.17;;;;;;;;;;6215847;23;20515;-65
2023/08/30 05:32:23;;;;;;;7.43;3.63;;;;;;;;;;6216096;23;20064;-64
2023/08/30 05:34:49;;;;;;;5.90;3.20;;;;;;;;;;6216004;23;20072;-65
2023/08/30 05:37:16;;;;;;;4.75;2.90;;;;;;;;;;6216334;23;20087;-66
2023/08/30 05:39:42;;;;;;;6.82;3.08;;;;;;;;;;6215936;23;20069;-65
2023/08/30 05:42:08;;;;;;;6.30;3.13;;;;;;;;;;6216111;23;20079;-65
2023/08/30 05:44:35;;;;;;;5.25;3.03;;;;;;;;;;6215596;23;20169;-65
2023/08/30 05:47:01;;;;;;;6.40;2.92;;;;;;;;;;6216049;23;20084;-66
2023/08/30 05:49:27;;;;;;;7.28;3.47;;;;;;;;;;6216051;23;20067;-66
2023/08/30 05:51:54;;;;;;;5.80;3.33;;;;;;;;;;6215956;23;20079;-65
2023/08/30 05:54:20;;;;;;;5.65;3.20;;;;;;;;;;6215979;23;20414;-66
2023/08/30 05:56:46;;;;;;;10.45;3.40;;;;;;;;;;6216208;23;20088;-66
2023/08/30 05:59:13;;;;;;;11.23;3.40;;;;;;;;;;6215390;23;20131;-66
2023/08/30 06:01:39;;;;;;;6.88;3.65;;;;;;;;;;6215844;23;20491;-66
2023/08/30 06:04:06;;;;;;;6.28;3.20;;;;;;;;;;6189333;23;20064;-66
2023/08/30 06:06:32;;;;;;;9.80;3.40;;;;;;;;;;6215719;23;20135;-66
2023/08/30 06:08:59;;;;;;;7.20;3.38;;;;;;;;;;6215790;23;20067;-65
2023/08/30 06:11:25;;;;;;;9.30;3.22;;;;;;;;;;6215853;23;20372;-66
2023/08/30 06:13:52;;;;;;;6.00;3.72;;;;;;;;;;6215383;23;20072;-66
2023/08/30 06:16:18;;;;;;;7.88;3.75;;;;;;;;;;6215704;23;20495;-66
2023/08/30 06:18:44;;;;;;;6.47;3.67;;;;;;;;;;6215824;23;20068;-66
2023/08/30 06:21:11;;;;;;;7.93;3.92;;;;;;;;;;6215597;23;20403;-66
2023/08/30 06:23:38;;;;;;;5.40;3.30;;;;;;;;;;6215751;23;20084;-66
2023/08/30 06:26:05;;;;;;;8.10;3.67;;;;;;;;;;6215695;23;20095;-66
2023/08/30 06:28:31;;;;;;;7.43;3.63;;;;;;;;;;6215062;23;20079;-66
2023/08/30 06:30:57;;;;;;;6.25;3.80;;;;;;;;;;6215584;23;20135;-66
2023/08/30 06:33:24;;;;;;;7.82;4.00;;;;;;;;;;6215666;23;20044;-66
2023/08/30 06:35:51;;;;;;;7.93;3.92;;;;;;;;;;6215671;23;20100;-66
2023/08/30 06:38:18;;;;;;;7.03;4.20;;;;;;;;;;6215219;23;20017;-66
2023/08/30 06:40:45;;;;;;;7.18;3.42;;;;;;;;;;6215579;23;20232;-66
2023/08/30 06:43:12;;;;;;;12.05;3.80;;;;;;;;;;6215067;23;20423;-66
2023/08/30 06:45:39;;;;;;;9.10;4.00;;;;;;;;;;6215388;23;20495;-66
2023/08/30 06:48:07;;;;;;;12.45;3.97;;;;;;;;;;6215475;23;20076;-66
2023/08/30 06:50:34;;;;;;;9.35;4.30;;;;;;;;;;6215412;23;20075;-66
2023/08/30 06:53:00;;;;;;;6.68;3.78;;;;;;;;;;6215295;23;20068;-66
2023/08/30 06:55:27;;;;;;;7.00;3.95;;;;;;;;;;6215317;23;20083;-66
2023/08/30 06:57:53;;;;;;;8.13;4.30;;;;;;;;;;6214927;23;20126;-66
2023/08/30 07:00:20;;;;;;;7.40;4.28;;;;;;;;;;6215259;23;20075;-66
2023/08/30 07:02:46;;;;;;;9.18;4.13;;;;;;;;;;6215519;23;20267;-66
2023/08/30 07:05:13;;;;;;;7.88;3.78;;;;;;;;;;6215146;23;20019;-66
2023/08/30 07:07:39;;;;;;;7.85;3.80;;;;;;;;;;6215317;23;20076;-66
2023/08/30 07:10:06;;;;;;;5.35;3.80;;;;;;;;;;6215087;23;20394;-66
2023/08/30 07:12:32;;;;;;;6.78;3.90;;;;;;;;;;6214799;23;20111;-66
2023/08/30 07:14:58;;;;;;;7.28;3.65;;;;;;;;;;6215235;23;20081;-66
2023/08/30 07:17:25;;;;;;;5.57;3.80;;;;;;;;;;6214982;23;20526;-66
2023/08/30 07:19:51;;;;;;;6.70;4.15;;;;;;;;;;6215249;23;20068;-66
2023/08/30 07:22:18;;;;;;;6.20;4.18;;;;;;;;;;6215138;23;20075;-66
2023/08/30 07:24:45;;;;;;;5.15;3.88;;;;;;;;;;6215072;23;20076;-66
2023/08/30 07:27:14;;;;;;;5.75;3.67;;;;;;;;;;6214712;23;20068;-66
2023/08/30 07:29:41;;;;;;;7.63;3.83;;;;;;;;;;6214930;23;20075;-66
2023/08/30 07:32:09;;;;;;;11.18;3.83;;;;;;;;;;6212351;23;20143;-66
2023/08/30 07:34:35;;;;;;;6.93;3.90;;;;;;;;;;6213982;23;20076;-66
2023/08/30 07:37:01;;;;;;;9.38;3.83;;;;;;;;;;6213930;23;20083;-66
2023/08/30 07:39:28;;;;;;;5.82;3.42;;;;;;;;;;6213951;23;20079;-67
2023/08/30 07:41:54;;;;;;;8.02;4.00;;;;;;;;;;6213341;23;20076;-67
2023/08/30 07:44:20;;;;;;;8.90;4.32;;;;;;;;;;6213866;23;20088;-66
2023/08/30 07:46:47;;;;;;;7.13;4.03;;;;;;;;;;6213893;23;20075;-66
2023/08/30 07:49:14;;;;;;;6.75;3.80;;;;;;;;;;6214017;23;20419;-66
2023/08/30 07:51:40;;;;;;;7.93;3.05;;;;;;;;;;6213658;23;20079;-66
2023/08/30 07:54:07;;;;;;;6.07;3.75;;;;;;;;;;6213868;23;20075;-67
2023/08/30 07:56:33;;;;;;;8.00;3.70;;;;;;;;;;6213429;23;20080;-66
2023/08/30 07:58:59;;;;;;;6.03;3.95;;;;;;;;;;6213830;23;20074;-66
2023/08/30 08:01:26;;;;;;;8.02;3.58;;;;;;;;;;6213863;23;20137;-66
2023/08/30 08:03:52;;;;;;;6.07;3.53;;;;;;;;;;6213322;23;20080;-66
2023/08/30 08:06:18;;;;;;;11.68;3.90;;;;;;;;;;6213520;23;20080;-66
2023/08/30 08:08:45;;;;;;;5.03;2.90;;;;;;;;;;6214030;23;20111;-66
2023/08/30 08:11:11;;;;;;;6.32;3.25;;;;;;;;;;6213455;23;20401;-66
2023/08/30 08:13:38;;;;;;;4.72;3.42;;;;;;;;;;6213772;23;20396;-66
2023/08/30 08:16:04;;;;;;;6.55;3.70;;;;;;;;;;6213738;23;20056;-66
2023/08/30 08:18:31;;;;;;;5.50;3.10;;;;;;;;;;6213646;23;20075;-67
2023/08/30 08:20:57;;;;;;;5.47;3.17;;;;;;;;;;6213657;23;20075;-67
2023/08/30 08:23:23;;;;;;;6.25;3.15;;;;;;;;;;6213912;23;20072;-66
2023/08/30 08:25:50;;;;;;;4.95;3.25;;;;;;;;;;6213525;23;20438;-66
2023/08/30 08:28:17;;;;;;;6.45;3.63;;;;;;;;;;6213686;23;20079;-66
2023/08/30 08:30:45;;;;;;;5.55;3.15;;;;;;;;;;6213346;23;20080;-66
2023/08/30 08:33:11;;;;;;;8.32;3.53;;;;;;;;;;6213622;23;20071;-66
2023/08/30 08:35:37;;;;;;;9.02;3.58;;;;;;;;;;6213536;23;20076;-66
2023/08/30 08:38:04;;;;;;;4.63;3.47;;;;;;;;;;6213735;23;20076;-66
2023/08/30 08:40:30;;;;;;;7.22;3.90;;;;;;;;;;6212832;23;20076;-66
2023/08/30 08:42:56;;;;;;;8.63;3.70;;;;;;;;;;6213437;23;20071;-66
2023/08/30 08:45:24;;;;;;;6.43;3.10;;;;;;;;;;6213588;23;20013;-67
2023/08/30 08:47:50;;;;;;;5.60;3.45;;;;;;;;;;6213681;23;20076;-67
2023/08/30 08:50:17;;;;;;;6.82;3.55;;;;;;;;;;6213604;23;20075;-66
2023/08/30 08:52:43;;;;;;;9.60;3.72;;;;;;;;;;6213450;23;20091;-67
2023/08/30 08:55:09;;;;;;;5.72;3.15;;;;;;;;;;6212940;23;20072;-66
2023/08/30 08:57:37;;;;;;;6.40;3.40;;;;;;;;;;6213485;23;20494;-66
2023/08/30 09:00:04;;;;;;;4.82;3.22;;;;;;;;;;6213586;23;20067;-67
2023/08/30 09:02:30;;;;;;;3.75;2.88;;;;;;;;;;6214936;23;20510;-67
2023/08/30 09:04:58;;;;;;;4.30;3.25;;;;;;;;;;6215438;23;20067;-66
2023/08/30 09:07:25;;;;;;;6.20;2.85;;;;;;;;;;6214603;23;20075;-66
2023/08/30 09:09:54;;;;;;;5.10;3.08;;;;;;;;;;6214556;23;20127;-67
2023/08/30 09:12:21;;;;;;;4.63;2.83;;;;;;;;;;6214424;23;20083;-67
2023/08/30 09:14:57;;;;;;;5.20;3.03;;;;;;;;;;6214912;23;20404;-66
2023/08/30 09:17:23;;;;;;;7.07;3.10;;;;;;;;;;6215224;23;20138;-67
2023/08/30 09:19:50;;;;;;;7.20;2.90;;;;;;;;;;6188632;23;20084;-67
2023/08/30 09:22:16;;;;;;;7.32;3.10;;;;;;;;;;6214773;23;20483;-66
2023/08/30 09:24:42;;;;;;;4.72;2.67;;;;;;;;;;6215042;23;20111;-66
2023/08/30 09:27:09;;;;;;;3.03;2.35;;;;;;;;;;6215252;23;20079;-67
2023/08/30 09:29:35;;;;;;;5.35;2.60;;;;;;;;;;6215708;23;20119;-67
2023/08/30 09:32:02;;;;;;;4.10;2.47;;;;;;;;;;6215756;23;20072;-66
2023/08/30 09:34:28;;;;;;;3.33;2.63;;;;;;;;;;6216016;23;20071;-66
2023/08/30 09:36:55;;;;;;;3.65;2.50;;;;;;;;;;6215404;23;20398;-67
2023/08/30 09:39:21;;;;;;;7.10;2.58;;;;;;;;;;6215998;23;20072;-67
2023/08/30 09:41:50;;;;;;;4.55;2.60;;;;;;;;;;6215965;23;20428;-67
2023/08/30 09:44:18;;;;;;;4.07;2.55;;;;;;;;;;6215571;23;20080;-66
2023/08/30 09:46:50;;;;;;;3.63;2.45;;;;;;;;;;6215962;23;20023;-67
2023/08/30 09:49:18;;;;;;;7.15;2.70;;;;;;;;;;6216051;23;20360;-66
2023/08/30 09:51:46;;;;;;;4.07;2.80;;;;;;;;;;6215569;23;20319;-67
2023/08/30 09:54:17;;;;;;;6.43;2.53;;;;;;;;;;6215845;23;20075;-66
2023/08/30 09:56:44;;;;;;;2.83;2.28;;;;;;;;;;6216000;23;20087;-66
2023/08/30 09:59:11;;;;;;;4.20;2.50;;;;;;;;;;6215860;23;20084;-66
2023/08/30 10:01:38;;;;;;;3.35;2.67;;;;;;;;;;6215786;23;20071;-66
2023/08/30 10:04:04;;;;;;;4.63;2.50;;;;;;;;;;6215918;23;20075;-67
2023/08/30 10:06:31;;;;;;;4.18;2.30;;;;;;;;;;6215304;23;20084;-67
2023/08/30 10:08:59;;;;;;;2.53;2.08;;;;;;;;;;6215844;23;20063;-67
2023/08/30 10:11:27;;;;;;;3.47;2.45;;;;;;;;;;6215918;23;20071;-66
2023/08/30 10:13:54;;;;;;;3.65;2.50;;;;;;;;;;6215674;23;20072;-67
2023/08/30 10:16:20;;;;;;;7.25;2.53;;;;;;;;;;6215466;23;20080;-67
2023/08/30 10:18:51;;;;;;;7.53;2.22;;;;;;;;;;6215740;23;20075;-67
2023/08/30 10:21:19;;;;;;;2.83;2.00;;;;;;;;;;6215295;23;20116;-67
2023/08/30 10:23:48;;;;;;;2.63;2.28;;;;;;;;;;6215708;23;20067;-67
2023/08/30 10:26:15;;;;;;;3.22;2.05;;;;;;;;;;6215566;23;20087;-67
2023/08/30 10:28:42;;;;;;;2.33;1.90;;;;;;;;;;6215707;23;20072;-67
2023/08/30 10:31:08;;;;;;;5.82;2.25;;;;;;;;;;6215510;23;20067;-67
2023/08/30 10:33:47;;;;;;;2.30;2.05;;;;;;;;;;6215656;23;20072;-67
2023/08/30 10:36:20;;;;;;;3.05;2.20;;;;;;;;;;6215055;23;20409;-67
2023/08/30 10:38:49;;;;;;;4.43;2.30;;;;;;;;;;6215751;23;20465;-67
2023/08/30 10:41:20;;;;;;;3.03;2.00;;;;;;;;;;6215466;23;20079;-67
2023/08/30 10:43:51;;;;;;;3.65;2.30;;;;;;;;;;6215528;23;20071;-67
2023/08/30 10:46:17;;;;;;;3.20;2.00;;;;;;;;;;6215607;23;20084;-67
2023/08/30 10:48:44;;;;;;;6.38;2.35;;;;;;;;;;6215550;23;20495;-67
2023/08/30 10:51:22;;;;;;;3.60;2.53;;;;;;;;;;6215058;23;20072;-67
2023/08/30 10:53:58;;;;;;;2.25;2.05;;;;;;;;;;6215357;23;20080;-67
2023/08/30 10:56:30;;;;;;;3.13;2.45;;;;;;;;;;6215512;23;20395;-67
2023/08/30 10:58:57;;;;;;;3.08;2.00;;;;;;;;;;6215375;23;20084;-67
2023/08/30 11:01:23;;;;;;;4.80;2.38;;;;;;;;;;6215432;23;20096;-67
2023/08/30 11:03:50;;;;;;;2.97;2.28;;;;;;;;;;6214853;23;20068;-67
2023/08/30 11:06:17;;;;;;;3.88;2.60;;;;;;;;;;6215256;23;20425;-67
2023/08/30 11:08:43;;;;;;;2.97;2.28;;;;;;;;;;6215370;23;20075;-67
2023/08/30 11:11:11;;;;;;;3.95;2.53;;;;;;;;;;6215207;23;20075;-67
2023/08/30 11:13:38;;;;;;;4.10;2.92;;;;;;;;;;6215391;23;20073;-67
2023/08/30 11:16:04;;;;;;;2.97;2.45;;;;;;;;;;6215480;23;20088;-67
2023/08/30 11:18:31;;;;;;;3.78;2.60;;;;;;;;;;6214792;23;20075;-67
2023/08/30 11:21:01;;;;;;;4.05;2.30;;;;;;;;;;6188666;23;20075;-67
2023/08/30 11:23:28;;;;;;;3.92;2.17;;;;;;;;;;6215251;23;20064;-67
2023/08/30 11:25:54;;;;;;;3.35;2.15;;;;;;;;;;6215231;23;20099;-67
2023/08/30 11:28:24;;;;;;;8.15;2.50;;;;;;;;;;6215064;23;20068;-67
2023/08/30 11:30:52;;;;;;;6.57;2.45;;;;;;;;;;6215596;23;20084;-67
2023/08/30 11:33:21;;;;;;;2.72;2.13;;;;;;;;;;6214758;23;20064;-67
2023/08/30 11:35:51;;;;;;;5.60;2.50;;;;;;;;;;6214908;23;20503;-66
2023/08/30 11:38:21;;;;;;;7.40;2.40;;;;;;;;;;6215032;23;20079;-67
2023/08/30 11:40:49;;;;;;;2.78;2.30;;;;;;;;;;6215015;23;20091;-67
2023/08/30 11:43:16;;;;;;;3.53;2.67;;;;;;;;;;6215101;23;20072;-67
2023/08/30 11:45:42;;;;;;;4.57;2.78;;;;;;;;;;6214837;23;20075;-67
2023/08/30 11:48:08;;;;;;;3.53;2.25;;;;;;;;;;6214669;23;20171;-66
2023/08/30 11:50:35;;;;;;;3.90;2.60;;;;;;;;;;6214960;23;20071;-67
2023/08/30 11:53:02;;;;;;;7.65;2.80;;;;;;;;;;6188271;23;20095;-67
2023/08/30 11:55:28;;;;;;;4.80;2.33;;;;;;;;;;6215102;23;20072;-67
2023/08/30 11:57:55;;;;;;;3.53;2.40;;;;;;;;;;6214841;23;20068;-67
2023/08/30 12:00:22;;;;;;;4.28;2.55;;;;;;;;;;6214892;23;20087;-67
2023/08/30 12:02:48;;;;;;;3.47;2.13;;;;;;;;;;6187985;23;20064;-67
2023/08/30 12:05:15;;;;;;;5.28;2.47;;;;;;;;;;6214703;23;20072;-67
2023/08/30 12:07:42;;;;;;;3.85;2.58;;;;;;;;;;6214826;23;20099;-67
2023/08/30 12:10:09;;;;;;;4.95;2.75;;;;;;;;;;6214810;23;20075;-67
2023/08/30 12:12:36;;;;;;;3.97;2.55;;;;;;;;;;6214874;23;20071;-67
2023/08/30 12:15:12;;;;;;;3.85;2.38;;;;;;;;;;6214782;23;20072;-67
2023/08/30 12:17:38;;;;;;;4.70;2.13;;;;;;;;;;6214232;23;20499;-67
2023/08/30 12:20:06;;;;;;;3.30;2.42;;;;;;;;;;6214736;23;20080;-67
2023/08/30 12:22:41;;;;;;;3.45;2.35;;;;;;;;;;6214634;23;20398;-67
2023/08/30 12:25:17;;;;;;;7.43;2.53;;;;;;;;;;6214649;23;20080;-67
2023/08/30 12:27:44;;;;;;;5.70;2.92;;;;;;;;;;6214640;23;20119;-67
2023/08/30 12:30:11;;;;;;;4.38;2.30;;;;;;;;;;6214741;23;20072;-67
2023/08/30 12:32:37;;;;;;;3.65;2.75;;;;;;;;;;6214365;23;20064;-67
2023/08/30 12:35:03;;;;;;;4.15;2.60;;;;;;;;;;6214486;23;20072;-67
2023/08/30 12:37:30;;;;;;;4.68;2.40;;;;;;;;;;6216963;23;20527;-67
2023/08/30 12:39:56;;;;;;;3.00;2.42;;;;;;;;;;6216861;23;20084;-67
2023/08/30 12:42:22;;;;;;;2.75;2.30;;;;;;;;;;6216808;23;20092;-67
2023/08/30 12:44:49;;;;;;;3.72;2.35;;;;;;;;;;6216318;23;20495;-69
2023/08/30 12:47:15;;;;;;;6.60;2.30;;;;;;;;;;6216617;23;20526;-67
2023/08/30 12:49:41;;;;;;;2.60;2.08;;;;;;;;;;6216791;23;20068;-67
2023/08/30 12:52:08;;;;;;;4.53;2.45;;;;;;;;;;6216612;23;20079;-67
2023/08/30 12:54:34;;;;;;;4.35;2.47;;;;;;;;;;6216672;23;20064;-67
2023/08/30 12:57:00;;;;;;;2.83;2.35;;;;;;;;;;6216913;23;20071;-67
2023/08/30 12:59:26;;;;;;;6.00;2.30;;;;;;;;;;6216245;23;20132;-67
2023/08/30 13:01:53;;;;;;;3.38;2.05;;;;;;;;;;6216508;23;20490;-67
2023/08/30 13:04:19;;;;;;;3.10;2.10;;;;;;;;;;6216589;23;20084;-67
2023/08/30 13:06:45;;;;;;;3.67;2.33;;;;;;;;;;6213759;23;20017;-67
2023/08/30 13:09:12;;;;;;;3.85;2.30;;;;;;;;;;6215550;23;20107;-67
2023/08/30 13:11:38;;;;;;;2.95;2.25;;;;;;;;;;6215276;23;20072;-67
2023/08/30 13:14:04;;;;;;;2.47;2.08;;;;;;;;;;6215475;23;20076;-67
2023/08/30 13:16:30;;;;;;;3.70;2.30;;;;;;;;;;6215412;23;20083;-67
2023/08/30 13:18:57;;;;;;;3.10;2.00;;;;;;;;;;6215649;23;20088;-67
2023/08/30 13:21:23;;;;;;;8.05;2.10;;;;;;;;;;6215317;23;20084;-67
2023/08/30 13:23:49;;;;;;;4.72;2.08;;;;;;;;;;6215493;23;20067;-67
2023/08/30 13:26:16;;;;;;;2.60;2.40;;;;;;;;;;6215484;23;20388;-67
2023/08/30 13:28:42;;;;;;;3.22;2.03;;;;;;;;;;6215098;23;20079;-67
2023/08/30 13:31:08;;;;;;;3.13;2.20;;;;;;;;;;6215295;23;20079;-67
2023/08/30 13:33:35;;;;;;;3.45;2.08;;;;;;;;;;6215248;23;20080;-67
2023/08/30 13:36:02;;;;;;;3.55;2.28;;;;;;;;;;6215194;23;20388;-67
2023/08/30 13:38:28;;;;;;;3.00;2.35;;;;;;;;;;6215351;23;20079;-68
2023/08/30 13:41:01;;;;;;;3.15;2.22;;;;;;;;;;6215225;23;20076;-67
2023/08/30 13:43:27;;;;;;;3.28;2.20;;;;;;;;;;6214977;23;20526;-67
2023/08/30 13:46:00;;;;;;;2.90;2.47;;;;;;;;;;6215158;23;20077;-67
2023/08/30 13:48:26;;;;;;;4.90;2.28;;;;;;;;;;6215460;23;20083;-67
2023/08/30 13:50:53;;;;;;;3.53;2.10;;;;;;;;;;6214959;23;20080;-67
2023/08/30 13:53:19;;;;;;;2.95;2.08;;;;;;;;;;6215204;23;20491;-67
2023/08/30 13:55:48;;;;;;;2.40;2.20;;;;;;;;;;6215086;23;20072;-67
2023/08/30 13:58:15;;;;;;;4.28;2.65;;;;;;;;;;6214772;23;20422;-67
2023/08/30 14:00:41;;;;;;;4.05;2.20;;;;;;;;;;6214875;23;20068;-67
2023/08/30 14:03:08;;;;;;;3.10;2.42;;;;;;;;;;6215099;23;20071;-67
2023/08/30 14:05:34;;;;;;;3.50;2.10;;;;;;;;;;6214908;23;20071;-67
2023/08/30 14:08:01;;;;;;;4.95;2.58;;;;;;;;;;6214964;23;20079;-67
2023/08/30 14:10:28;;;;;;;2.55;2.17;;;;;;;;;;6214808;23;20394;-68
2023/08/30 14:12:54;;;;;;;10.30;2.50;;;;;;;;;;6214276;23;20091;-66
2023/08/30 14:15:20;;;;;;;4.35;2.67;;;;;;;;;;6214783;23;20068;-67
2023/08/30 14:17:47;;;;;;;3.97;2.50;;;;;;;;;;6214642;23;20079;-67
2023/08/30 14:20:13;;;;;;;3.60;2.25;;;;;;;;;;6214605;23;20399;-66
2023/08/30 14:22:39;;;;;;;3.28;2.47;;;;;;;;;;6214481;23;20083;-67
2023/08/30 14:25:06;;;;;;;3.55;2.42;;;;;;;;;;6214322;23;20067;-67
2023/08/30 14:27:32;;;;;;;3.22;2.75;;;;;;;;;;6214732;23;20407;-67
2023/08/30 14:30:00;;;;;;;3.65;2.38;;;;;;;;;;6215603;23;20072;-66
2023/08/30 14:32:27;;;;;;;3.97;2.13;;;;;;;;;;6215736;23;20080;-66
2023/08/30 14:34:53;;;;;;;3.78;2.20;;;;;;;;;;6215524;23;20063;-68
2023/08/30 14:37:19;;;;;;;5.85;2.42;;;;;;;;;;6215692;23;20087;-67
2023/08/30 14:39:46;;;;;;;4.57;2.65;;;;;;;;;;6215478;23;20080;-67
2023/08/30 14:42:12;;;;;;;6.18;2.35;;;;;;;;;;6215142;23;20103;-67